Main page
METAR-TAF:

METAR-TAF

Airports :

Najran Domestic Airport

Najran, Saudi Arabia

latitude: 17-37N, longitude: 044-25E, elevation: 1212 m

Current weather observation

The report was made 25 minutes ago, at 21:00 UTC
Calm wind
Temperature 13°C
Humidity 41%
Pressure 1022 hPa
Visibility: 4000 m
widespread dust

METAR: OENG 222100Z 00000KT 4000 DU NSC 13/00 Q1022 NOSIG

Time: 00:25 (21:25 UTC)

Forecast

The report was made 10 hours and 25 minutes ago, at 11:00 UTC
Forecast valid from 22 at 12 UTC to 23 at 18 UTC
Wind 10 kt from the East
Visibility: 6000 m
Few clouds at a height of 3000 ft
Temporary
from 22 at 12 UTC to 22 at 22 UTC
Visibility: 3000 m
widespread dust
Becoming
from 22 at 18 UTC to 22 at 20 UTC
Wind 3 kt from variable directions
Visibility: 8000 m

TAF: OENG 221100Z 2212/2318 09010KT 6000 FEW030 TEMPO 2212/2222 3000 DU BECMG 2218/2220 VRB03KT 8000 NSC

Weather observations and forecasts of more than 4000 airports (METAR and TAF reports).

The available stations are represented by yellow and red dots on the map.

Hover mouse over dot to see the name of the station.

Then click to see weather observations and forecasts.

To change the map : click on the green buttons with a black cross to zoom in, on the green button with a dash to zoom out, or on the green arrows for adjacent maps.


METAR-TAF: